createdAt,value
2019-01-21T00:01:09.828Z,20.97
2019-01-21T00:03:39.686Z,29.53
2019-01-21T00:06:09.249Z,31.07
2019-01-21T00:08:38.890Z,37.77
2019-01-21T00:11:08.638Z,44.87
2019-01-21T00:13:38.497Z,41.77
2019-01-21T00:16:08.190Z,43.23
2019-01-21T00:18:37.595Z,45.70
2019-01-21T00:21:07.079Z,42.60
2019-01-21T00:23:36.569Z,41.67
2019-01-21T00:26:05.961Z,41.70
2019-01-21T00:28:35.718Z,42.80
2019-01-21T00:31:05.637Z,40.47
2019-01-21T00:33:35.445Z,40.73
2019-01-21T00:36:05.238Z,38.30
2019-01-21T00:38:34.849Z,30.83
2019-01-21T00:41:04.385Z,44.93
2019-01-21T00:43:34.188Z,38.33
2019-01-21T00:46:04.079Z,29.33
2019-01-21T00:48:33.847Z,29.33
2019-01-21T00:51:03.711Z,28.73
2019-01-21T00:53:33.380Z,25.57
2019-01-21T00:56:03.315Z,22.00
2019-01-21T00:58:33.137Z,26.80
2019-01-21T01:01:02.848Z,27.27
2019-01-21T01:03:32.561Z,30.23
2019-01-21T01:06:02.394Z,28.20
2019-01-21T01:08:32.008Z,31.07
2019-01-21T01:11:01.707Z,28.40
2019-01-21T01:13:31.466Z,29.30
2019-01-21T01:16:01.214Z,29.27
2019-01-21T01:18:30.830Z,26.00
2019-01-21T01:21:00.409Z,33.57
2019-01-21T01:23:30.019Z,32.23
2019-01-21T01:25:59.753Z,27.23
2019-01-21T01:28:29.456Z,29.23
2019-01-21T01:30:59.167Z,27.23
2019-01-21T01:33:28.896Z,28.80
2019-01-21T01:35:58.472Z,29.70
2019-01-21T01:38:28.182Z,30.43
2019-01-21T01:40:58.013Z,28.20
2019-01-21T01:43:27.706Z,31.03
2019-01-21T01:45:57.302Z,24.87
2019-01-21T01:48:27.178Z,26.03
2019-01-21T01:50:56.787Z,26.33
2019-01-21T01:53:26.344Z,19.23
2019-01-21T01:55:56.145Z,19.03
2019-01-21T01:58:25.904Z,21.40
2019-01-21T02:00:55.610Z,18.63
2019-01-21T02:03:25.305Z,17.13
2019-01-21T02:05:54.872Z,16.67
2019-01-21T02:08:24.591Z,16.70
2019-01-21T02:10:54.168Z,18.20
2019-01-21T02:13:23.787Z,17.17
2019-01-21T02:15:53.521Z,13.80
2019-01-21T02:18:23.232Z,13.87
2019-01-21T02:20:56.072Z,11.97
2019-01-21T02:23:29.983Z,16.10
2019-01-21T02:26:04.656Z,13.87
2019-01-21T02:29:02.725Z,15.10
2019-01-21T02:32:19.104Z,13.67
2019-01-21T02:35:36.508Z,11.43
2019-01-21T02:38:54.965Z,15.63
2019-01-21T02:41:54.034Z,13.27
2019-01-21T02:45:01.835Z,13.17
2019-01-21T02:48:00.062Z,13.80
2019-01-21T02:51:07.621Z,12.73
2019-01-21T02:54:21.409Z,14.10
2019-01-21T02:57:21.848Z,12.90
2019-01-21T03:00:16.145Z,15.30
2019-01-21T03:03:21.559Z,15.33
2019-01-21T03:06:50.243Z,11.00
2019-01-21T03:09:56.068Z,9.10
2019-01-21T03:13:03.514Z,10.83
2019-01-21T03:16:05.869Z,11.77
2019-01-21T03:18:52.650Z,10.60
2019-01-21T03:22:01.425Z,9.63
2019-01-21T03:25:07.266Z,10.70
2019-01-21T03:28:19.781Z,34.13
2019-01-21T03:31:26.124Z,24.93
2019-01-21T03:34:45.745Z,57.00
2019-01-21T03:37:50.944Z,58.53
2019-01-21T03:41:13.246Z,61.53
2019-01-21T03:44:17.545Z,114.40
2019-01-21T03:47:09.560Z,50.10
2019-01-21T03:50:01.360Z,20.20
2019-01-21T03:53:26.740Z,33.90
2019-01-21T03:56:00.576Z,39.17
2019-01-21T03:59:06.162Z,22.00
2019-01-21T04:02:02.574Z,21.40
2019-01-21T04:05:18.980Z,21.27
2019-01-21T04:08:13.401Z,27.53
2019-01-21T04:11:23.850Z,20.60
2019-01-21T04:14:42.169Z,42.03
2019-01-21T04:17:54.062Z,117.60
2019-01-21T04:21:13.188Z,120.90
2019-01-21T04:24:26.032Z,100.07
2019-01-21T04:27:05.740Z,36.67
2019-01-21T04:29:52.704Z,33.27
2019-01-21T04:33:09.064Z,40.77
2019-01-21T04:36:04.309Z,35.90
2019-01-21T04:39:06.931Z,33.40
2019-01-21T04:42:22.311Z,75.33
2019-01-21T04:45:13.859Z,26.60
2019-01-21T04:48:12.776Z,19.23
2019-01-21T04:51:02.030Z,26.63
2019-01-21T04:54:39.836Z,23.67
2019-01-21T04:57:44.812Z,35.73
2019-01-21T05:00:50.363Z,22.57
2019-01-21T05:04:04.772Z,34.40
2019-01-21T05:07:01.281Z,24.07
2019-01-21T05:10:08.919Z,22.27
2019-01-21T05:13:14.601Z,22.70
2019-01-21T05:16:23.611Z,25.80
2019-01-21T05:19:09.644Z,43.30
2019-01-21T05:22:16.147Z,26.70
2019-01-21T05:25:24.182Z,19.57
2019-01-21T05:28:07.922Z,32.07
2019-01-21T05:31:08.878Z,38.93
2019-01-21T05:34:40.352Z,67.10
2019-01-21T05:37:41.719Z,54.40
2019-01-21T05:40:58.127Z,85.47
2019-01-21T05:44:03.915Z,87.43
2019-01-21T05:47:08.257Z,56.87
2019-01-21T05:50:10.486Z,32.97
2019-01-21T05:53:16.909Z,54.80
2019-01-21T05:56:17.240Z,208.23
2019-01-21T05:59:26.476Z,176.43
2019-01-21T06:02:34.258Z,23.20
2019-01-21T06:06:03.371Z,137.27
2019-01-21T06:09:18.230Z,25.30
2019-01-21T06:12:13.257Z,52.07
2019-01-21T06:15:38.758Z,66.77
2019-01-21T06:18:24.041Z,57.67
2019-01-21T06:21:41.507Z,45.40
2019-01-21T06:25:13.255Z,32.30
2019-01-21T06:28:44.670Z,31.23
2019-01-21T06:31:45.827Z,30.37
2019-01-21T06:34:55.164Z,31.97
2019-01-21T06:37:54.123Z,59.67
2019-01-21T06:41:04.736Z,71.37
2019-01-21T06:44:10.904Z,24.93
2019-01-21T06:47:12.016Z,18.57
2019-01-21T06:50:18.996Z,17.70
2019-01-21T06:53:38.476Z,15.40
2019-01-21T06:56:47.417Z,13.17
2019-01-21T06:59:35.482Z,14.60
2019-01-21T07:02:39.666Z,39.73
2019-01-21T07:05:40.451Z,40.13
2019-01-21T07:08:48.862Z,29.20
2019-01-21T07:11:43.663Z,40.70
2019-01-21T07:14:54.843Z,39.73
2019-01-21T07:18:04.428Z,71.27
2019-01-21T07:20:45.290Z,78.43
2019-01-21T07:23:57.682Z,57.17
2019-01-21T07:27:00.420Z,54.33
2019-01-21T07:30:00.837Z,49.90
2019-01-21T07:33:23.038Z,38.00
2019-01-21T07:56:04.326Z,19.80
2019-01-21T07:59:18.376Z,55.93
2019-01-21T08:02:10.928Z,32.17
2019-01-21T08:05:24.309Z,42.80
2019-01-21T08:08:30.060Z,81.47
2019-01-21T08:11:25.819Z,76.17
2019-01-21T08:14:48.267Z,68.27
2019-01-21T08:17:44.784Z,66.43
2019-01-21T08:20:25.789Z,93.97
2019-01-21T08:23:44.911Z,61.07
2019-01-21T08:26:42.307Z,45.27
2019-01-21T08:30:09.708Z,45.57
2019-01-21T08:33:21.159Z,26.73
2019-01-21T08:36:23.173Z,48.83
2019-01-21T08:39:29.349Z,46.73
2019-01-21T08:42:32.845Z,30.57
2019-01-21T08:45:58.213Z,33.47
2019-01-21T08:48:46.075Z,32.70
2019-01-21T08:51:58.753Z,43.47
2019-01-21T08:55:06.241Z,43.63
2019-01-21T08:58:13.690Z,40.37
2019-01-21T09:01:21.247Z,33.63
2019-01-21T09:04:13.895Z,36.67
2019-01-21T09:07:24.254Z,40.50
2019-01-21T09:10:27.554Z,53.33
2019-01-21T09:13:37.987Z,49.93
2019-01-21T09:16:55.820Z,33.07
2019-01-21T09:19:54.685Z,34.93
2019-01-21T09:23:04.986Z,133.23
2019-01-21T09:26:23.639Z,63.37
2019-01-21T09:29:38.549Z,32.70
2019-01-21T09:32:18.101Z,27.67
2019-01-21T09:34:56.587Z,35.60
2019-01-21T09:37:53.280Z,23.83
2019-01-21T09:40:52.572Z,22.53
2019-01-21T09:43:37.015Z,19.53
2019-01-21T09:46:28.707Z,23.57
2019-01-21T09:48:56.313Z,22.10
2019-01-21T09:51:27.290Z,21.87
2019-01-21T09:53:56.991Z,22.97
2019-01-21T09:56:31.421Z,24.00
2019-01-21T09:59:01.861Z,22.50
2019-01-21T10:01:33.853Z,25.53
2019-01-21T10:04:04.198Z,26.87
2019-01-21T10:06:46.003Z,26.30
2019-01-21T10:09:59.885Z,25.50
2019-01-21T10:12:55.358Z,23.63
2019-01-21T10:15:53.720Z,21.50
2019-01-21T10:18:51.795Z,23.93
2019-01-21T10:22:23.360Z,29.07
2019-01-21T10:25:10.316Z,23.87
2019-01-21T10:28:24.069Z,27.03
2019-01-21T10:31:29.243Z,25.60
2019-01-21T10:34:47.553Z,25.30
2019-01-21T10:38:13.076Z,28.90
2019-01-21T10:41:06.479Z,25.20
2019-01-21T10:44:05.298Z,25.20
2019-01-21T10:47:21.657Z,23.23
2019-01-21T10:50:49.577Z,24.27
2019-01-21T10:53:43.778Z,26.90
2019-01-21T10:56:34.161Z,30.80
2019-01-21T10:59:53.918Z,32.03
2019-01-21T11:03:19.367Z,25.13
2019-01-21T11:06:22.537Z,25.40
2019-01-21T11:09:31.957Z,24.87
2019-01-21T11:12:13.406Z,27.00
2019-01-21T11:14:55.704Z,32.67
2019-01-21T11:18:11.782Z,32.00
2019-01-21T11:21:30.158Z,30.00
2019-01-21T11:24:41.825Z,32.43
2019-01-21T11:27:41.906Z,32.20
2019-01-21T11:30:36.839Z,30.20
2019-01-21T11:33:51.603Z,32.37
2019-01-21T11:36:50.355Z,29.20
2019-01-21T11:39:42.998Z,29.33
2019-01-21T11:43:04.582Z,29.00
2019-01-21T11:46:36.063Z,31.20
2019-01-21T11:49:48.325Z,30.33
2019-01-21T11:52:42.549Z,43.83
2019-01-21T11:55:34.109Z,35.90
2019-01-21T12:00:59.991Z,29.50
2019-01-21T12:03:41.271Z,34.43
2019-01-21T12:06:29.012Z,30.23
2019-01-21T12:09:35.208Z,28.60
2019-01-21T12:12:33.446Z,28.63
2019-01-21T12:15:43.495Z,35.13
2019-01-21T12:18:39.526Z,29.00
2019-01-21T12:21:20.941Z,31.10
2019-01-21T12:24:26.182Z,28.90
2019-01-21T12:27:45.315Z,36.67
2019-01-21T12:30:52.170Z,46.20
2019-01-21T12:33:42.118Z,33.47
2019-01-21T12:37:03.694Z,32.15
2019-01-21T12:40:17.332Z,28.85
2019-01-21T12:43:39.744Z,32.40
2019-01-21T12:46:44.418Z,31.67
2019-01-21T12:49:56.521Z,25.30
2019-01-21T12:53:00.826Z,27.00
2019-01-21T12:56:06.744Z,29.60
2019-01-21T12:59:01.559Z,65.97
2019-01-21T13:01:54.290Z,107.97
2019-01-21T13:04:54.678Z,137.13
2019-01-21T13:07:45.315Z,62.17
2019-01-21T13:10:44.266Z,46.83
2019-01-21T13:13:48.059Z,33.33
2019-01-21T13:16:26.227Z,52.17
2019-01-21T13:19:31.424Z,40.57
2019-01-21T13:22:30.073Z,41.00
2019-01-21T13:25:40.481Z,54.63
2019-01-21T13:28:38.342Z,30.33
2019-01-21T13:32:01.346Z,42.37
2019-01-21T13:35:04.946Z,39.70
2019-01-21T13:38:18.345Z,64.43
2019-01-21T13:41:21.112Z,35.67
2019-01-21T13:44:33.989Z,22.77
2019-01-21T13:47:50.552Z,24.87
2019-01-21T13:51:04.095Z,33.10
2019-01-21T13:54:05.125Z,27.73
2019-01-21T13:56:52.927Z,30.63
2019-01-21T14:00:24.077Z,31.43
2019-01-21T14:03:26.528Z,37.33
2019-01-21T14:06:31.875Z,35.73
2019-01-21T14:09:56.532Z,36.30
2019-01-21T14:13:17.953Z,44.03
2019-01-21T14:16:21.241Z,38.60
2019-01-21T14:19:46.765Z,40.33
2019-01-21T14:22:58.580Z,46.13
2019-01-21T14:26:04.826Z,54.33
2019-01-21T14:29:04.236Z,44.80
2019-01-21T14:32:23.526Z,62.67
2019-01-21T14:35:04.976Z,68.17
2019-01-21T14:38:02.953Z,50.13
2019-01-21T14:41:13.847Z,40.93
2019-01-21T14:44:18.680Z,57.67
2019-01-21T14:47:29.038Z,64.17
2019-01-21T14:50:24.567Z,71.43
2019-01-21T14:53:23.389Z,74.33
2019-01-21T14:56:33.595Z,66.83
2019-01-21T14:59:18.996Z,61.50
2019-01-21T15:02:09.030Z,65.73
2019-01-21T15:05:19.266Z,91.70
2019-01-21T15:08:10.016Z,95.97
2019-01-21T15:11:20.926Z,101.23
2019-01-21T15:14:32.944Z,136.83
2019-01-21T15:17:46.855Z,185.60
2019-01-21T15:20:44.664Z,163.10
2019-01-21T15:23:39.499Z,82.77
2019-01-21T15:26:37.123Z,81.33
2019-01-21T15:29:56.907Z,69.30
2019-01-21T15:32:52.555Z,55.93
2019-01-21T15:35:34.350Z,61.43
2019-01-21T15:38:27.899Z,63.87
2019-01-21T15:41:33.345Z,63.50
2019-01-21T15:44:35.922Z,81.60
2019-01-21T15:47:41.219Z,101.77
2019-01-21T15:50:56.240Z,101.53
2019-01-21T15:54:12.649Z,75.30
2019-01-21T15:57:10.893Z,112.73
2019-01-21T16:00:19.925Z,158.07
2019-01-21T16:03:15.145Z,86.23
2019-01-21T16:06:28.526Z,79.33
2019-01-21T16:09:42.093Z,64.77
2019-01-21T16:12:47.449Z,61.07
2019-01-21T16:15:56.970Z,74.20
2019-01-21T16:18:37.496Z,90.60
2019-01-21T16:21:37.519Z,114.13
2019-01-21T16:24:45.704Z,122.20
2019-01-21T16:27:39.472Z,131.10
2019-01-21T16:30:24.464Z,144.73
2019-01-21T16:33:31.891Z,231.70
2019-01-21T16:36:21.182Z,136.23
2019-01-21T16:39:09.705Z,149.13
2019-01-21T16:42:13.468Z,147.10
2019-01-21T16:44:44.480Z,143.50
2019-01-21T16:47:14.194Z,141.07
2019-01-21T16:49:43.787Z,139.67
2019-01-21T16:52:13.600Z,130.00
2019-01-21T16:54:43.292Z,136.63
2019-01-21T16:57:13.022Z,136.13
2019-01-21T16:59:42.779Z,126.73
2019-01-21T17:02:12.455Z,135.37
2019-01-21T17:04:42.017Z,140.03
2019-01-21T17:07:11.826Z,134.30
2019-01-21T17:09:41.550Z,137.47
2019-01-21T17:12:11.546Z,124.47
2019-01-21T17:14:41.270Z,118.23
2019-01-21T17:19:40.731Z,120.17
2019-01-21T17:22:10.520Z,128.67
2019-01-21T17:24:40.390Z,120.57
2019-01-21T17:27:10.191Z,116.90
2019-01-21T17:29:40.059Z,123.73
2019-01-21T17:32:09.627Z,143.73
2019-01-21T17:34:39.383Z,122.43
2019-01-21T17:37:09.170Z,127.00
2019-01-21T17:39:38.893Z,145.77
2019-01-21T17:42:08.304Z,121.43
2019-01-21T17:44:37.797Z,115.30
2019-01-21T17:47:07.603Z,130.13
2019-01-21T17:49:37.216Z,138.97
2019-01-21T17:52:07.194Z,133.10
2019-01-21T17:54:37.124Z,146.47
2019-01-21T17:57:07.034Z,138.23
2019-01-21T17:59:36.447Z,128.63
2019-01-21T18:02:06.313Z,136.93
2019-01-21T18:04:36.353Z,146.10
2019-01-21T18:07:05.894Z,145.43
2019-01-21T18:09:35.291Z,142.10
2019-01-21T18:12:06.543Z,130.07
2019-01-21T18:14:35.945Z,143.43
2019-01-21T18:17:05.965Z,140.33
2019-01-21T18:19:35.673Z,147.03
2019-01-21T18:22:05.397Z,135.13
2019-01-21T18:24:34.979Z,139.03
2019-01-21T18:27:04.682Z,133.77
2019-01-21T18:29:34.415Z,128.03
2019-01-21T18:32:04.412Z,109.03
2019-01-21T18:34:34.215Z,101.23
2019-01-21T18:37:04.240Z,110.27
2019-01-21T18:39:34.122Z,101.07
2019-01-21T18:42:03.781Z,94.30
2019-01-21T18:44:33.467Z,88.30
2019-01-21T18:47:03.186Z,94.67
2019-01-21T18:49:33.015Z,86.47
2019-01-21T18:52:02.979Z,89.47
2019-01-21T18:54:32.746Z,85.67
2019-01-21T18:57:02.434Z,80.13
2019-01-21T18:59:32.254Z,75.83
2019-01-21T19:02:02.092Z,66.47
2019-01-21T19:04:31.684Z,62.30
2019-01-21T19:07:01.292Z,65.37
2019-01-21T19:09:30.732Z,57.47
2019-01-21T19:12:00.524Z,60.60
2019-01-21T19:14:30.366Z,52.03
2019-01-21T19:17:00.101Z,47.70
2019-01-21T19:19:29.727Z,47.07
2019-01-21T19:21:59.139Z,48.60
2019-01-21T19:24:29.011Z,50.67
2019-01-21T19:26:58.737Z,42.67
2019-01-21T19:29:28.139Z,44.57
2019-01-21T19:31:57.860Z,43.87
2019-01-21T19:34:27.439Z,42.87
2019-01-21T19:36:57.065Z,43.03
2019-01-21T19:39:26.787Z,42.57
2019-01-21T19:41:56.575Z,45.03
2019-01-21T19:44:25.972Z,39.17
2019-01-21T19:46:58.461Z,38.30
2019-01-21T19:49:28.213Z,39.20
2019-01-21T19:52:00.418Z,50.67
2019-01-21T19:54:30.629Z,53.33
2019-01-21T19:57:00.456Z,61.87
2019-01-21T19:59:30.429Z,51.30
2019-01-21T20:02:00.081Z,50.30
2019-01-21T20:04:29.669Z,50.00
2019-01-21T20:06:59.498Z,58.60
2019-01-21T20:09:29.267Z,57.30
2019-01-21T20:11:58.717Z,55.70
2019-01-21T20:14:28.434Z,51.57
2019-01-21T20:16:58.231Z,51.43
2019-01-21T20:19:28.048Z,55.03
2019-01-21T20:21:57.873Z,49.47
2019-01-21T20:24:28.539Z,46.40
2019-01-21T20:26:58.032Z,53.27
2019-01-21T20:29:27.710Z,53.83
2019-01-21T20:31:57.583Z,51.57
2019-01-21T20:34:28.536Z,53.90
2019-01-21T20:36:58.375Z,58.00
2019-01-21T20:39:28.053Z,53.23
2019-01-21T20:41:57.793Z,62.03
2019-01-21T20:44:27.491Z,61.30
2019-01-21T20:46:57.034Z,59.43
2019-01-21T20:49:26.583Z,57.20
2019-01-21T20:51:56.203Z,56.83
2019-01-21T20:54:25.930Z,58.27
2019-01-21T20:56:55.749Z,55.83
2019-01-21T20:59:25.535Z,55.47
2019-01-21T21:01:55.162Z,57.23
2019-01-21T21:04:24.981Z,53.20
2019-01-21T21:06:54.481Z,51.30
2019-01-21T21:09:24.063Z,53.77
2019-01-21T21:11:53.508Z,52.97
2019-01-21T21:14:23.193Z,57.73
2019-01-21T21:16:52.907Z,52.20
2019-01-21T21:19:22.578Z,51.23
2019-01-21T21:21:52.101Z,52.07
2019-01-21T21:24:21.588Z,49.40
2019-01-21T21:26:51.357Z,47.63
2019-01-21T21:29:21.021Z,48.27
2019-01-21T21:31:50.668Z,50.80
2019-01-21T21:34:20.130Z,48.37
2019-01-21T21:36:49.533Z,48.40
2019-01-21T21:39:19.325Z,51.53
2019-01-21T21:41:48.864Z,47.63
2019-01-21T21:44:18.272Z,54.03
2019-01-21T21:46:48.232Z,53.27
2019-01-21T21:49:17.732Z,52.43
2019-01-21T21:51:47.580Z,50.07
2019-01-21T21:54:17.299Z,50.33
2019-01-21T21:56:47.022Z,52.53
2019-01-21T21:59:16.863Z,47.33
2019-01-21T22:01:46.628Z,44.53
2019-01-21T22:04:16.216Z,47.97
2019-01-21T22:06:45.594Z,53.30
2019-01-21T22:09:15.362Z,48.63
2019-01-21T22:11:45.469Z,52.30
2019-01-21T22:14:15.370Z,49.70
2019-01-21T22:16:45.188Z,48.67
2019-01-21T22:19:14.807Z,52.90
2019-01-21T22:21:44.233Z,51.87
2019-01-21T22:24:14.173Z,47.30
2019-01-21T22:26:44.030Z,49.30
2019-01-21T22:29:13.633Z,51.23
2019-01-21T22:31:43.043Z,48.20
2019-01-21T22:34:12.560Z,52.13
2019-01-21T22:36:42.580Z,44.53
2019-01-21T22:39:12.143Z,42.37
2019-01-21T22:41:41.879Z,43.27
2019-01-21T22:44:11.755Z,41.53
2019-01-21T22:46:41.594Z,42.07
2019-01-21T22:49:10.998Z,40.23
2019-01-21T22:51:40.626Z,41.90
2019-01-21T22:54:10.200Z,45.27
2019-01-21T22:56:39.608Z,49.13
2019-01-21T22:59:09.450Z,40.70
2019-01-21T23:01:39.338Z,42.80
2019-01-21T23:04:08.738Z,40.07
2019-01-21T23:06:38.129Z,45.17
2019-01-21T23:09:09.816Z,42.70
2019-01-21T23:11:39.712Z,44.20
2019-01-21T23:14:09.420Z,43.47
2019-01-21T23:16:39.091Z,49.67
2019-01-21T23:19:08.583Z,43.17
2019-01-21T23:21:38.609Z,46.20
2019-01-21T23:24:08.346Z,44.40
2019-01-21T23:26:38.020Z,44.03
2019-01-21T23:29:07.490Z,46.50
2019-01-21T23:31:37.138Z,45.03
2019-01-21T23:34:06.637Z,51.97
2019-01-21T23:36:36.215Z,47.67
2019-01-21T23:39:08.206Z,48.13
2019-01-21T23:41:37.856Z,47.10
2019-01-21T23:44:07.639Z,45.30
2019-01-21T23:46:37.268Z,52.73
2019-01-21T23:49:06.676Z,52.17
2019-01-21T23:51:36.157Z,53.70
2019-01-21T23:54:05.678Z,55.23
2019-01-21T23:56:35.055Z,53.80
2019-01-21T23:59:04.559Z,53.30
